Time;durP1;ratioP1;P1;durP2;ratioP2;P2;SDS_P1;SDS_P2;PMS_P1;PMS_P2;Temp;Humidity;BMP_temperature;BMP_pressure;BME280_temperature;BME280_humidity;BME280_pressure;Samples;Min_cycle;Max_cycle;Signal;HPM_P1;HPM_P2
2022/09/19 00:01:21;;;;;;;1.17;1.00;;;;;;;17.08;39.37;99555.22;5093389;28;20036;-78
2022/09/19 00:03:57;;;;;;;3.00;1.40;;;;;;;17.11;39.71;99543.34;5093433;28;20020;-78
2022/09/19 00:06:26;;;;;;;1.60;1.10;;;;;;;16.11;39.41;99390.56;5093459;28;20501;-78
2022/09/19 00:08:52;;;;;;;1.60;1.10;;;;;;;17.09;39.61;99548.88;5092189;28;20408;-78
2022/09/19 00:11:19;;;;;;;1.63;1.00;;;;;;;17.03;39.42;99541.75;5093340;28;20035;-78
2022/09/19 00:13:47;;;;;;;1.88;1.30;;;;;;;15.63;39.81;99324.59;5093217;28;20024;-78
2022/09/19 00:16:23;;;;;;;1.98;1.08;;;;;;;16.62;39.76;99472.16;5093491;28;20024;-78
2022/09/19 00:18:50;;;;;;;1.92;1.00;;;;;;;16.75;39.81;99504.88;5093234;28;20081;-78
2022/09/19 00:21:23;;;;;;;1.50;1.08;;;;;;;16.93;39.56;99514.75;5091991;28;20496;-78
2022/09/19 00:26:33;;;;;;;1.90;1.13;;;;;;;16.95;40.00;99539.34;5092950;28;20035;-78
2022/09/19 00:28:58;;;;;;;1.38;0.95;;;;;;;16.41;40.15;99457.38;5092922;28;20028;-79
2022/09/19 00:31:23;;;;;;;2.65;0.95;;;;;;;16.91;40.06;99548.00;5092883;28;20075;-79
2022/09/19 00:33:50;;;;;;;2.63;0.90;;;;;;;16.96;40.03;99534.84;5092956;28;20430;-79
2022/09/19 00:36:17;;;;;;;2.55;1.02;;;;;;;16.95;40.13;99538.53;5092841;28;20024;-79
2022/09/19 00:38:44;;;;;;;1.17;1.08;;;;;;;16.07;40.05;99414.16;5092960;28;20031;-79
2022/09/19 00:41:14;;;;;;;3.22;1.42;;;;;;;16.22;39.85;99421.81;5092744;28;20077;-78
2022/09/19 00:43:47;;;;;;;1.80;0.85;;;;;;;16.42;40.19;99467.81;5092930;28;20028;-79
2022/09/19 00:46:13;;;;;;;1.20;1.02;;;;;;;16.91;40.03;99540.81;5092610;28;20035;-79
2022/09/19 00:48:41;;;;;;;1.60;1.30;;;;;;;16.19;40.11;99432.91;5092565;28;20024;-79
2022/09/19 00:51:10;;;;;;;1.90;1.30;;;;;;;16.14;40.23;99430.91;5092877;28;20089;-79
2022/09/19 00:53:37;;;;;;;1.35;1.23;;;;;;;16.84;40.07;99535.56;5093214;28;20024;-78
2022/09/19 00:56:04;;;;;;;1.27;1.05;;;;;;;16.50;40.32;99510.19;5091601;28;20533;-79
2022/09/19 00:58:38;;;;;;;1.27;1.00;;;;;;;16.73;40.37;99543.44;5091364;28;20020;-79
2022/09/19 01:01:03;;;;;;;2.20;1.00;;;;;;;16.33;40.70;99493.06;5092403;28;20113;-79
2022/09/19 01:03:30;;;;;;;1.90;1.10;;;;;;;16.54;40.73;99521.22;5091182;28;20028;-79
2022/09/19 01:05:59;;;;;;;1.70;1.30;;;;;;;16.65;41.02;99533.03;5092331;28;20051;-78
2022/09/19 01:08:43;;;;;;;1.27;1.10;;;;;;;16.71;40.80;99526.84;5091024;28;20090;-79
2022/09/19 01:11:19;;;;;;;3.15;1.10;;;;;;;16.67;40.86;99536.31;5092400;28;20028;-79
2022/09/19 01:13:54;;;;;;;1.63;1.17;;;;;;;16.58;40.92;99527.75;5090962;28;20055;-79
2022/09/19 01:16:41;;;;;;;2.45;1.20;;;;;;;16.00;40.75;99429.38;5090944;28;20035;-78
2022/09/19 01:19:09;;;;;;;1.95;1.05;;;;;;;16.61;40.70;99527.31;5090785;28;20043;-78
2022/09/19 01:21:46;;;;;;;2.42;1.30;;;;;;;16.06;40.43;99435.69;5091884;28;20408;-79
2022/09/19 01:24:20;;;;;;;2.58;1.10;;;;;;;16.62;40.66;99523.63;5091807;28;20023;-78
2022/09/19 01:27:12;;;;;;;1.70;1.10;;;;;;;15.82;40.64;99398.16;5091973;28;20520;-78
2022/09/19 01:29:47;;;;;;;2.22;1.10;;;;;;;16.20;40.50;99462.00;5090571;28;20408;-78
2022/09/19 01:32:18;;;;;;;3.15;1.17;;;;;;;15.89;40.95;99427.41;5091760;28;20028;-79
2022/09/19 01:34:49;;;;;;;;;;;;;;;16.26;41.26;99526.09;5092399;28;20032;-79
2022/09/19 01:37:40;;;;;;;1.75;1.27;;;;;;;16.10;40.93;99495.47;5090736;28;19912;-79
2022/09/19 01:40:09;;;;;;;2.65;1.23;;;;;;;16.33;40.86;99517.03;5089661;28;20126;-79
2022/09/19 01:42:35;;;;;;;2.75;1.23;;;;;;;15.88;41.38;99471.84;5091530;28;20031;-79
2022/09/19 01:45:00;;;;;;;1.90;1.10;;;;;;;15.70;41.25;99474.41;5090542;28;20019;-78
2022/09/19 01:47:38;;;;;;;2.83;1.48;;;;;;;16.23;41.03;99519.38;5090464;28;20519;-78
2022/09/19 01:50:47;;;;;;;1.40;1.30;;;;;;;16.12;41.04;99502.22;5091664;28;20509;-78
2022/09/19 01:53:30;;;;;;;2.25;1.33;;;;;;;16.12;41.06;99520.88;5085843;28;20040;-79
2022/09/19 01:56:09;;;;;;;2.50;1.23;;;;;;;15.82;41.49;99491.34;5091840;28;20028;-79
2022/09/19 01:59:12;;;;;;;1.80;1.30;;;;;;;16.02;41.27;99522.38;5092158;28;20153;-78
2022/09/19 02:01:55;;;;;;;2.13;1.25;;;;;;;15.89;41.17;99509.94;5091964;28;20052;-79
2022/09/19 02:04:25;;;;;;;2.95;1.15;;;;;;;16.01;41.39;99531.38;5091367;28;20034;-78
2022/09/19 02:07:12;;;;;;;2.25;1.33;;;;;;;16.08;41.49;99534.81;5090117;28;20118;-78
2022/09/19 02:10:02;;;;;;;2.20;1.00;;;;;;;16.10;41.65;99528.25;5091461;28;20028;-79
2022/09/19 02:12:31;;;;;;;1.58;1.20;;;;;;;15.96;41.54;99536.53;5091316;28;20027;-79
2022/09/19 02:15:00;;;;;;;3.40;1.27;;;;;;;15.83;41.65;99492.97;5091474;28;20028;-79
2022/09/19 02:17:33;;;;;;;1.17;1.00;;;;;;;16.12;41.70;99539.50;5091431;28;20393;-78
2022/09/19 02:20:07;;;;;;;1.70;1.27;;;;;;;15.82;41.60;99493.19;5091299;28;20034;-79
2022/09/19 02:22:38;;;;;;;1.73;1.30;;;;;;;16.16;41.39;99529.25;5091428;28;20041;-79
2022/09/19 02:25:09;;;;;;;2.53;1.50;;;;;;;15.64;41.43;99456.63;5091207;28;20038;-79
2022/09/19 02:27:40;;;;;;;1.92;1.20;;;;;;;15.77;41.48;99461.06;5091322;28;20089;-79
2022/09/19 02:30:09;;;;;;;3.30;1.30;;;;;;;15.46;41.69;99416.53;5089907;28;20115;-79
2022/09/19 02:32:36;;;;;;;4.28;1.40;;;;;;;15.41;41.51;99400.41;5089764;28;20081;-78
2022/09/19 02:35:03;;;;;;;3.70;1.48;;;;;;;16.00;42.03;99511.13;5091137;28;20098;-79
2022/09/19 02:37:36;;;;;;;2.95;1.30;;;;;;;15.80;42.08;99520.03;5091082;28;20085;-79
2022/09/19 02:40:23;;;;;;;2.50;1.20;;;;;;;15.88;42.51;99550.91;5091215;28;20052;-79
2022/09/19 02:43:06;;;;;;;3.65;1.58;;;;;;;15.89;43.12;99540.06;5091585;28;20404;-79
2022/09/19 02:45:45;;;;;;;3.50;1.20;;;;;;;15.82;42.96;99541.94;5089933;28;20040;-78
2022/09/19 02:48:19;;;;;;;2.78;1.25;;;;;;;15.73;43.21;99539.72;5091164;28;20496;-79
2022/09/19 02:50:50;;;;;;;1.85;1.75;;;;;;;15.46;43.36;99523.78;5090916;28;20503;-79
2022/09/19 02:53:22;;;;;;;2.00;1.20;;;;;;;14.99;43.56;99447.84;5091257;28;20031;-79
2022/09/19 02:55:55;;;;;;;2.10;1.40;;;;;;;15.60;43.31;99556.53;5089925;28;20028;-79
2022/09/19 02:58:23;;;;;;;3.38;1.58;;;;;;;15.41;43.25;99504.16;5089800;28;20454;-79
2022/09/19 03:00:53;;;;;;;6.32;1.90;;;;;;;15.74;43.05;99544.00;5090735;28;20536;-78
2022/09/19 03:04:12;;;;;;;5.45;2.05;;;;;;;15.66;43.73;99538.94;5090841;28;20028;-79
2022/09/19 03:06:53;;;;;;;3.95;1.63;;;;;;;15.51;43.51;99509.84;5082001;28;20036;-79
2022/09/19 03:09:23;;;;;;;4.57;1.70;;;;;;;15.17;43.76;99503.81;5089699;28;20024;-79
2022/09/19 03:11:59;;;;;;;4.72;2.05;;;;;;;15.57;44.20;99559.56;5094069;28;20031;-79
2022/09/19 03:14:24;;;;;;;3.47;2.08;;;;;;;15.36;44.18;99543.88;5093532;28;20032;-79
2022/09/19 03:16:56;;;;;;;4.38;1.70;;;;;;;15.01;44.22;99484.84;5093132;28;20546;-79
2022/09/19 03:19:23;;;;;;;3.15;1.70;;;;;;;14.64;44.35;99428.66;5094440;28;20493;-79
2022/09/19 03:21:52;;;;;;;3.47;2.03;;;;;;;15.20;44.23;99529.19;5094423;28;20028;-79
2022/09/19 03:24:17;;;;;;;2.63;1.60;;;;;;;14.76;44.14;99469.53;5094277;28;20020;-79
2022/09/19 03:26:43;;;;;;;3.05;1.75;;;;;;;14.86;44.44;99487.72;5094489;28;20039;-79
2022/09/19 03:29:09;;;;;;;2.90;1.98;;;;;;;14.73;44.72;99493.03;5092851;28;20393;-79
2022/09/19 03:31:34;;;;;;;4.22;1.73;;;;;;;15.24;44.92;99573.78;5093868;28;20028;-79
2022/09/19 03:34:00;;;;;;;4.22;1.83;;;;;;;14.98;44.70;99522.47;5093927;28;20028;-78
2022/09/19 03:36:28;;;;;;;3.97;1.95;;;;;;;15.44;44.77;99564.94;5093851;28;20035;-79
2022/09/19 03:39:00;;;;;;;4.32;1.48;;;;;;;15.13;44.65;99504.44;5094028;28;20027;-79
2022/09/19 03:41:25;;;;;;;;;;;;;;;15.34;45.31;99572.53;5094748;28;20077;-78
2022/09/19 03:43:51;;;;;;;4.57;2.38;;;;;;;15.27;44.62;99532.66;5092814;28;20354;-78
2022/09/19 03:46:22;;;;;;;2.67;1.67;;;;;;;15.33;44.32;99561.06;5094028;28;20032;-78
2022/09/19 03:48:47;;;;;;;3.42;1.80;;;;;;;14.57;44.65;99470.38;5093810;28;20024;-78
2022/09/19 03:51:15;;;;;;;2.75;1.90;;;;;;;14.68;44.80;99498.16;5093875;28;20081;-79
2022/09/19 03:53:43;;;;;;;5.13;1.90;;;;;;;14.99;45.22;99567.47;5093123;28;20119;-79
2022/09/19 03:56:11;;;;;;;4.30;2.15;;;;;;;14.74;44.86;99514.09;5092432;28;20031;-79
2022/09/19 03:58:37;;;;;;;4.18;2.33;;;;;;;14.48;45.12;99471.59;5093751;28;20043;-79
2022/09/19 04:01:04;;;;;;;2.42;2.22;;;;;;;14.62;44.93;99513.91;5093517;28;20101;-78
2022/09/19 04:03:30;;;;;;;3.47;2.20;;;;;;;14.63;45.20;99520.03;5093628;28;20063;-79
2022/09/19 04:05:56;;;;;;;3.53;1.90;;;;;;;14.93;45.05;99582.41;5093833;28;20028;-78
2022/09/19 04:08:21;;;;;;;3.20;2.08;;;;;;;14.87;45.29;99561.16;5101297;28;20057;-78
2022/09/19 04:10:47;;;;;;;4.90;2.35;;;;;;;14.75;45.69;99574.19;5117532;28;20032;-78
2022/09/19 04:13:13;;;;;;;3.97;2.17;;;;;;;14.80;45.41;99569.09;5097221;28;20531;-79
2022/09/19 04:15:39;;;;;;;7.00;2.28;;;;;;;14.45;45.47;99525.13;5093374;28;20031;-79
2022/09/19 04:18:05;;;;;;;5.78;2.17;;;;;;;14.86;45.49;99572.78;5093560;28;20032;-79
2022/09/19 04:20:31;;;;;;;6.55;2.10;;;;;;;14.73;45.38;99564.78;5093492;28;20062;-79
2022/09/19 04:23:01;;;;;;;3.72;2.70;;;;;;;14.55;45.37;99566.22;5092993;28;20047;-79
2022/09/19 04:25:32;;;;;;;5.35;2.13;;;;;;;14.65;45.53;99591.56;5091994;28;20121;-79
2022/09/19 04:28:03;;;;;;;5.28;2.50;;;;;;;13.04;45.64;99338.38;5092245;28;20051;-79
2022/09/19 04:30:28;;;;;;;4.15;2.45;;;;;;;13.89;45.90;99482.91;5093228;28;20032;-78
2022/09/19 04:32:54;;;;;;;3.38;2.55;;;;;;;14.26;45.94;99561.25;5093035;28;20035;-78
2022/09/19 04:35:20;;;;;;;4.55;3.08;;;;;;;14.30;46.23;99584.53;5091871;28;20028;-79
2022/09/19 04:37:46;;;;;;;5.97;4.28;;;;;;;14.25;46.30;99597.59;5093053;28;20020;-79
2022/09/19 04:40:11;;;;;;;6.60;4.40;;;;;;;13.87;46.63;99568.06;5093072;28;20028;-78
2022/09/19 04:42:37;;;;;;;12.77;5.55;;;;;;;14.04;46.32;99584.44;5093177;28;20012;-78
2022/09/19 04:45:03;;;;;;;6.55;5.05;;;;;;;13.67;46.55;99516.75;5092901;28;20032;-78
2022/09/19 04:47:32;;;;;;;9.77;4.90;;;;;;;13.57;46.69;99517.09;5091575;28;20020;-78
2022/09/19 04:49:57;;;;;;;7.43;4.50;;;;;;;13.55;46.80;99523.63;5092779;28;20051;-79
2022/09/19 04:52:24;;;;;;;5.38;4.60;;;;;;;13.23;47.05;99467.56;5092446;28;20480;-79
2022/09/19 04:54:50;;;;;;;7.72;4.45;;;;;;;13.96;47.03;99590.75;5092610;28;20457;-78
2022/09/19 04:57:15;;;;;;;7.93;4.20;;;;;;;13.96;46.69;99605.84;5092811;28;20032;-78
2022/09/19 04:59:41;;;;;;;5.78;4.00;;;;;;;13.99;46.88;99606.28;5092978;28;20073;-79
2022/09/19 05:02:08;;;;;;;6.13;3.85;;;;;;;13.47;46.85;99529.09;5092600;28;20059;-79
2022/09/19 05:04:34;;;;;;;7.82;4.18;;;;;;;13.67;46.69;99530.81;5092644;28;20461;-78
2022/09/19 05:07:00;;;;;;;4.55;3.42;;;;;;;14.22;46.41;99599.84;5091185;28;20024;-79
2022/09/19 05:09:26;;;;;;;6.18;3.63;;;;;;;13.67;46.51;99506.13;5092599;28;20032;-79
2022/09/19 05:11:56;;;;;;;6.00;3.63;;;;;;;13.65;46.35;99518.78;5090895;28;20028;-79
2022/09/19 05:14:23;;;;;;;9.07;4.30;;;;;;;13.90;46.96;99546.41;5092460;28;20523;-78
2022/09/19 05:16:50;;;;;;;9.57;4.55;;;;;;;13.98;46.58;99554.19;5092330;28;20034;-78
2022/09/19 05:19:16;;;;;;;8.38;4.70;;;;;;;14.33;46.44;99593.94;5090875;28;20140;-79
2022/09/19 05:21:44;;;;;;;8.77;4.90;;;;;;;13.59;46.55;99501.00;5092359;28;20022;-78
2022/09/19 05:24:10;;;;;;;9.05;5.72;;;;;;;14.12;46.62;99557.75;5092655;28;20493;-79
2022/09/19 05:26:38;;;;;;;6.78;6.03;;;;;;;13.90;46.49;99509.25;5091052;28;20030;-78
2022/09/19 05:29:04;;;;;;;12.43;7.13;;;;;;;13.82;46.29;99485.56;5092183;28;20030;-79
2022/09/19 05:31:35;;;;;;;15.75;7.53;;;;;;;14.41;46.58;99567.19;5091037;28;20032;-78
2022/09/19 05:34:01;;;;;;;11.53;7.23;;;;;;;14.61;46.28;99591.16;5082802;28;20028;-78
2022/09/19 05:36:27;;;;;;;12.75;7.15;;;;;;;14.56;46.14;99590.94;5075113;28;20489;-78
2022/09/19 05:38:52;;;;;;;11.07;5.97;;;;;;;13.90;46.27;99469.44;5072638;28;20051;-78
2022/09/19 05:41:18;;;;;;;8.27;5.38;;;;;;;14.67;46.24;99603.63;5082784;28;20052;-78
2022/09/19 05:43:44;;;;;;;11.20;5.60;;;;;;;13.98;46.24;99481.72;5073254;28;20481;-78
2022/09/19 05:46:10;;;;;;;6.55;4.32;;;;;;;14.85;46.19;99616.31;5072807;28;20051;-78
2022/09/19 05:48:37;;;;;;;8.32;5.28;;;;;;;13.50;46.21;99367.72;5074668;28;20071;-78
2022/09/19 05:51:03;;;;;;;9.20;4.65;;;;;;;14.99;46.74;99594.06;5083040;28;20028;-78
2022/09/19 05:56:12;;;;;;;10.13;5.22;;;;;;;14.89;46.29;99554.59;5085898;28;20123;-78
2022/09/19 05:58:37;;;;;;;11.25;5.20;;;;;;;14.94;46.08;99541.50;5091788;28;20020;-78
2022/09/19 06:01:07;;;;;;;8.70;4.35;;;;;;;15.35;45.76;99592.78;5089366;28;20040;-78
2022/09/19 06:03:35;;;;;;;7.82;4.43;;;;;;;15.46;46.03;99597.47;5084135;28;20055;-78
2022/09/19 06:06:05;;;;;;;9.88;4.70;;;;;;;15.59;45.48;99605.47;5072131;28;20086;-78
2022/09/19 06:08:30;;;;;;;10.57;6.10;;;;;;;15.29;45.82;99541.25;5071600;28;20508;-79
2022/09/19 06:11:00;;;;;;;9.70;6.03;;;;;;;15.72;45.78;99596.66;5075964;28;20024;-78
2022/09/19 06:14:13;;;;;;;11.73;6.30;;;;;;;15.81;45.43;99595.38;5082427;28;20089;-79
2022/09/19 06:16:11;;;;;;;8.98;5.90;;;;;;;15.34;45.62;99509.50;5072446;28;20079;-79
2022/09/19 06:18:36;;;;;;;9.13;5.07;;;;;;;15.98;45.09;99593.06;5074474;28;20107;-78
2022/09/19 06:21:02;;;;;;;5.72;5.13;;;;;;;15.82;44.62;99560.56;5090552;28;20103;-78
2022/09/19 06:23:27;;;;;;;9.32;6.07;;;;;;;15.73;44.88;99519.25;5091595;28;20032;-78
2022/09/19 06:25:52;;;;;;;8.52;5.38;;;;;;;15.89;44.42;99533.91;5091335;28;20032;-78
2022/09/19 06:28:18;;;;;;;8.30;5.03;;;;;;;16.15;44.05;99544.41;5090765;28;20020;-79
2022/09/19 06:30:43;;;;;;;9.65;5.88;;;;;;;16.11;43.80;99535.22;5085539;28;20484;-78
2022/09/19 06:33:09;;;;;;;12.32;6.15;;;;;;;16.37;43.78;99560.91;5090256;28;20111;-79
2022/09/19 06:35:38;;;;;;;10.68;5.00;;;;;;;16.63;43.16;99591.06;5085375;28;20036;-79
2022/09/19 06:38:05;;;;;;;9.88;4.75;;;;;;;16.42;43.33;99569.06;5070125;28;20029;-79
2022/09/19 06:40:31;;;;;;;6.53;3.90;;;;;;;16.55;43.02;99570.00;5085590;28;20059;-79
2022/09/19 06:43:01;;;;;;;5.65;3.97;;;;;;;16.91;42.75;99602.16;5090762;28;20519;-78
2022/09/19 06:45:28;;;;;;;9.10;4.45;;;;;;;17.00;42.08;99600.84;5078520;28;20028;-79
2022/09/19 06:47:58;;;;;;;5.93;3.90;;;;;;;17.08;42.31;99605.91;5084180;28;20032;-78
2022/09/19 06:50:24;;;;;;;8.25;4.60;;;;;;;16.91;42.35;99556.84;5078616;28;20111;-79
2022/09/19 06:52:50;;;;;;;7.57;4.20;;;;;;;16.58;42.25;99501.09;5074253;28;20029;-79
2022/09/19 06:55:15;;;;;;;10.52;3.60;;;;;;;17.00;42.10;99557.38;5074797;28;20101;-78
2022/09/19 06:57:41;;;;;;;7.53;3.70;;;;;;;17.28;42.38;99579.09;5074853;28;20032;-78
2022/09/19 07:00:06;;;;;;;6.93;4.55;;;;;;;17.21;41.72;99565.00;5074211;28;20048;-78
2022/09/19 07:02:32;;;;;;;7.07;3.92;;;;;;;17.36;41.80;99577.97;5086032;28;20411;-79
2022/09/19 07:04:57;;;;;;;5.90;3.85;;;;;;;17.36;41.77;99564.63;5074864;28;20024;-78
2022/09/19 07:07:23;;;;;;;5.82;3.83;;;;;;;17.53;41.53;99562.19;5079008;28;20148;-78
2022/09/19 07:09:48;;;;;;;8.90;3.92;;;;;;;17.48;41.62;99539.66;5077990;28;20073;-79
2022/09/19 07:12:14;;;;;;;5.03;3.20;;;;;;;17.43;41.76;99523.50;5073033;28;20020;-78
2022/09/19 07:14:40;;;;;;;5.72;3.55;;;;;;;17.95;41.34;99603.25;5074712;28;20020;-78
2022/09/19 07:17:06;;;;;;;5.57;3.83;;;;;;;17.88;40.75;99578.47;5076836;28;20573;-78
2022/09/19 07:19:31;;;;;;;5.80;3.53;;;;;;;18.11;40.82;99597.28;5076497;28;20101;-78
2022/09/19 07:21:57;;;;;;;9.88;6.28;;;;;;;18.21;40.38;99597.56;5081718;28;20016;-78
2022/09/19 07:24:22;;;;;;;6.38;4.63;;;;;;;17.94;40.32;99538.31;5094014;28;20061;-78
2022/09/19 07:26:48;;;;;;;5.13;3.50;;;;;;;18.42;39.87;99609.59;5094241;28;20220;-78
2022/09/19 07:29:13;;;;;;;5.00;3.88;;;;;;;17.99;38.84;99517.09;5094214;28;20024;-79
2022/09/19 07:31:38;;;;;;;11.95;7.78;;;;;;;18.42;38.48;99564.97;5084118;28;20077;-78
2022/09/19 07:34:04;;;;;;;9.88;5.72;;;;;;;18.07;38.20;99498.06;5094476;28;20016;-78
2022/09/19 07:36:30;;;;;;;18.73;11.57;;;;;;;18.44;37.81;99530.00;5083221;28;20024;-80
2022/09/19 07:38:55;;;;;;;7.85;6.13;;;;;;;18.65;37.50;99548.22;5089545;28;20029;-79
2022/09/19 07:41:20;;;;;;;6.13;4.80;;;;;;;18.67;36.91;99548.00;5079655;28;20174;-79
2022/09/19 07:43:48;;;;;;;10.18;4.60;;;;;;;19.08;35.98;99587.22;5086027;28;20024;-78
2022/09/19 07:46:15;;;;;;;3.67;2.42;;;;;;;19.18;35.15;99594.69;5092264;28;20042;-79
2022/09/19 07:48:42;;;;;;;4.40;2.60;;;;;;;19.03;34.43;99571.06;5093804;28;20024;-78
2022/09/19 07:51:08;;;;;;;4.55;2.40;;;;;;;18.56;34.35;99473.88;5092726;28;20115;-78
2022/09/19 07:53:34;;;;;;;2.08;1.45;;;;;;;19.31;33.83;99583.75;5085526;28;20024;-79
2022/09/19 07:56:00;;;;;;;2.30;1.70;;;;;;;19.21;33.65;99564.78;5092688;28;20016;-78
2022/09/19 07:58:27;;;;;;;2.00;1.80;;;;;;;19.31;33.78;99554.28;5091740;28;20016;-79
2022/09/19 08:00:53;;;;;;;1.55;1.45;;;;;;;19.58;32.83;99586.78;5092175;28;20052;-79
2022/09/19 08:03:21;;;;;;;4.93;2.88;;;;;;;19.53;32.33;99571.44;5093513;28;20067;-79
2022/09/19 08:05:49;;;;;;;4.43;2.08;;;;;;;19.62;32.20;99580.72;5086803;28;20013;-78
2022/09/19 08:08:17;;;;;;;7.15;1.83;;;;;;;19.22;31.89;99508.31;5075966;28;20028;-78
2022/09/19 08:10:43;;;;;;;2.10;1.23;;;;;;;19.67;31.80;99585.38;5073360;28;20024;-78
2022/09/19 08:13:11;;;;;;;4.05;1.50;;;;;;;19.86;31.62;99569.97;5072996;28;20111;-79
2022/09/19 08:15:37;;;;;;;1.48;1.10;;;;;;;19.99;31.27;99551.72;5088937;28;20024;-79
2022/09/19 08:18:04;;;;;;;1.42;1.33;;;;;;;20.15;31.66;99550.19;5073418;28;20531;-78
2022/09/19 08:20:33;;;;;;;2.95;1.63;;;;;;;19.88;31.45;99490.16;5082421;28;20546;-79
2022/09/19 08:23:01;;;;;;;5.88;2.63;;;;;;;18.90;31.58;99299.22;5087540;28;20404;-79
2022/09/19 08:25:30;;;;;;;9.70;1.83;;;;;;;20.58;30.96;99549.63;5076567;28;20107;-77
2022/09/19 08:27:56;;;;;;;4.60;2.85;;;;;;;20.51;30.69;99507.91;5093411;28;20028;-79
2022/09/19 08:30:22;;;;;;;2.15;1.27;;;;;;;20.30;30.03;99498.69;5088991;28;20043;-78
2022/09/19 08:32:49;;;;;;;2.63;1.80;;;;;;;20.96;30.10;99541.91;5091824;28;20031;-78
2022/09/19 08:35:18;;;;;;;4.07;2.38;;;;;;;20.96;30.08;99512.38;5091856;28;20028;-78
2022/09/19 08:37:45;;;;;;;2.20;1.30;;;;;;;21.23;30.02;99529.44;5092924;28;20024;-79
2022/09/19 08:40:21;;;;;;;1.33;1.20;;;;;;;21.11;29.89;99483.06;5091031;28;20020;-79
2022/09/19 08:42:59;;;;;;;1.92;0.93;;;;;;;21.49;29.59;99526.03;5082203;28;20044;-79
2022/09/19 08:45:48;;;;;;;2.45;1.10;;;;;;;21.55;28.11;99508.94;5070871;28;20028;-78
2022/09/19 08:48:23;;;;;;;2.63;1.20;;;;;;;21.61;28.41;99517.06;5090946;28;20500;-79
2022/09/19 08:51:03;;;;;;;2.17;1.10;;;;;;;21.08;27.63;99425.31;5092537;28;20090;-78
2022/09/19 08:53:33;;;;;;;2.58;1.33;;;;;;;21.32;27.77;99438.53;5092563;28;20420;-78
2022/09/19 08:56:00;;;;;;;1.98;1.45;;;;;;;21.27;27.75;99409.75;5091549;28;20439;-78
2022/09/19 08:58:30;;;;;;;3.25;2.58;;;;;;;21.44;27.61;99426.59;5072761;28;20020;-78
2022/09/19 09:00:56;;;;;;;4.05;1.80;;;;;;;22.28;27.55;99514.03;5080147;28;20062;-78
2022/09/19 09:03:33;;;;;;;2.65;1.65;;;;;;;22.42;27.01;99499.13;5072176;28;20025;-78
2022/09/19 09:06:33;;;;;;;4.47;2.90;;;;;;;22.65;26.68;99489.88;5073406;28;20107;-78
2022/09/19 09:09:17;;;;;;;1.55;0.85;;;;;;;22.40;26.18;99432.13;5070880;28;20504;-79
2022/09/19 09:12:09;;;;;;;2.10;1.50;;;;;;;22.91;26.10;99480.13;5076015;28;20115;-78
2022/09/19 09:14:46;;;;;;;4.60;3.25;;;;;;;23.12;26.86;99471.94;5070608;28;20455;-79
2022/09/19 09:17:34;;;;;;;4.20;1.90;;;;;;;23.41;26.57;99480.41;5074931;28;20032;-78
2022/09/19 09:20:24;;;;;;;2.35;1.70;;;;;;;23.46;25.13;99448.09;5079286;28;20496;-78
2022/09/19 09:23:04;;;;;;;2.92;2.35;;;;;;;23.45;25.74;99419.53;5071947;28;20022;-78
2022/09/19 09:25:32;;;;;;;4.93;3.80;;;;;;;23.95;25.26;99465.78;5075069;28;20165;-78
2022/09/19 09:28:06;;;;;;;7.68;6.32;;;;;;;23.97;24.95;99439.38;5070986;28;20032;-79
2022/09/19 09:30:38;;;;;;;5.07;3.88;;;;;;;23.30;24.25;99306.34;5078271;28;20077;-78
2022/09/19 09:33:21;;;;;;;3.60;1.80;;;;;;;24.43;24.04;99458.28;5086067;28;20039;-78
2022/09/19 09:35:49;;;;;;;2.97;1.60;;;;;;;24.03;23.89;99376.25;5091087;28;20111;-78
2022/09/19 09:38:28;;;;;;;1.95;1.75;;;;;;;24.74;23.96;99442.88;5085588;28;20027;-78
2022/09/19 09:44:26;;;;;;;2.03;1.60;;;;;;;24.64;23.57;99392.41;5091673;28;20038;-78
2022/09/19 09:47:05;;;;;;;3.58;1.65;;;;;;;25.07;22.92;99446.88;5069699;28;20021;-78
2022/09/19 09:49:31;;;;;;;1.95;1.75;;;;;;;24.65;23.12;99404.84;5071245;28;20066;-78
2022/09/19 09:52:08;;;;;;;3.17;1.80;;;;;;;25.06;22.63;99446.06;5069389;28;20037;-78
2022/09/19 09:57:44;;;;;;;3.35;2.40;;;;;;;25.43;23.16;99424.06;5090832;28;20070;-78
2022/09/19 10:05:59;;;;;;;1.58;1.00;;;;;;;25.50;22.38;99380.50;5091264;28;20054;-78
2022/09/19 10:08:37;;;;;;;3.50;3.20;;;;;;;26.06;22.38;99440.47;5090909;28;20112;-77
2022/09/19 10:11:27;;;;;;;6.70;5.95;;;;;;;26.08;22.31;99430.19;5090787;28;20024;-78
2022/09/19 10:14:06;;;;;;;2.60;1.80;;;;;;;26.18;22.15;99413.84;5091004;28;20031;-78
2022/09/19 10:16:34;;;;;;;3.05;2.47;;;;;;;26.47;22.61;99430.13;5091094;28;20027;-78
2022/09/19 10:19:15;;;;;;;3.10;2.80;;;;;;;26.73;22.56;99427.97;5091530;28;20465;-78
2022/09/19 10:21:41;;;;;;;4.50;2.78;;;;;;;26.34;21.98;99341.47;5095442;28;20028;-79
2022/09/19 10:24:41;;;;;;;2.33;0.98;;;;;;;26.90;21.55;99416.72;5089406;28;20032;-77
2022/09/19 10:27:31;;;;;;;1.17;0.98;;;;;;;26.93;20.85;99394.47;5079848;28;20478;-76
2022/09/19 10:30:11;;;;;;;2.03;1.70;;;;;;;27.07;20.03;99405.44;5073173;28;20032;-76
2022/09/19 10:32:39;;;;;;;0.93;0.80;;;;;;;27.00;21.02;99396.84;5093135;28;20439;-78
2022/09/19 10:35:28;;;;;;;3.08;1.92;;;;;;;27.03;21.47;99399.78;5094865;28;20412;-78
2022/09/19 10:38:13;;;;;;;1.90;1.10;;;;;;;27.09;20.89;99397.81;5094931;28;20024;-77
2022/09/19 10:41:00;;;;;;;1.10;0.95;;;;;;;27.18;20.26;99394.19;5095165;28;20026;-78
2022/09/19 10:43:39;;;;;;;1.50;1.40;;;;;;;26.47;20.86;99302.06;5087624;28;20024;-76
2022/09/19 10:46:06;;;;;;;2.53;2.00;;;;;;;27.20;21.09;99383.84;5083925;28;20016;-76
2022/09/19 10:48:38;;;;;;;7.40;6.70;;;;;;;27.07;20.77;99343.13;5094937;28;20096;-77
2022/09/19 10:51:09;;;;;;;1.60;1.10;;;;;;;27.17;20.46;99335.66;5099655;28;20016;-78
2022/09/19 10:53:38;;;;;;;1.48;1.38;;;;;;;27.71;20.80;99375.06;5108279;28;20054;-78
2022/09/19 10:56:22;;;;;;;0.90;0.80;;;;;;;27.88;20.17;99358.22;5098049;28;20020;-78
2022/09/19 10:59:09;;;;;;;0.85;0.85;;;;;;;27.54;20.48;99296.09;5095095;28;20027;-78
2022/09/19 11:01:34;;;;;;;1.30;1.20;;;;;;;28.10;20.24;99352.97;5091152;28;20055;-77
2022/09/19 11:04:25;;;;;;;2.08;1.45;;;;;;;28.15;20.46;99350.16;5077923;28;20017;-78
2022/09/19 11:07:03;;;;;;;1.27;1.05;;;;;;;28.42;20.38;99344.03;5074188;28;20103;-78
2022/09/19 11:09:34;;;;;;;1.52;1.10;;;;;;;28.44;19.74;99336.38;5072908;28;20024;-78
2022/09/19 11:12:05;;;;;;;1.83;1.58;;;;;;;28.59;19.88;99324.41;5073178;28;20043;-78
2022/09/19 11:14:35;;;;;;;3.03;2.30;;;;;;;28.69;20.04;99326.13;5074192;28;20035;-78
2022/09/19 11:17:19;;;;;;;2.67;1.30;;;;;;;28.74;19.56;99315.97;5074726;28;20024;-78
2022/09/19 11:20:03;;;;;;;2.78;2.58;;;;;;;28.67;20.21;99301.19;5076827;28;20095;-78
2022/09/19 11:22:31;;;;;;;3.15;2.58;;;;;;;28.86;20.31;99306.53;5094311;28;20072;-78
2022/09/19 11:25:11;;;;;;;3.80;1.10;;;;;;;28.89;20.08;99297.75;5086402;28;20086;-78
2022/09/19 11:27:56;;;;;;;2.35;1.25;;;;;;;29.08;19.73;99301.97;5090334;28;20106;-77
2022/09/19 11:30:24;;;;;;;4.38;1.63;;;;;;;29.17;19.76;99299.31;5073857;28;20017;-78
2022/09/19 11:32:54;;;;;;;1.33;0.80;;;;;;;29.15;19.84;99296.13;5073236;28;20626;-78
2022/09/19 11:35:27;;;;;;;1.30;0.93;;;;;;;29.14;19.72;99278.19;5073514;28;20020;-79
2022/09/19 11:38:03;;;;;;;3.15;1.60;;;;;;;28.80;19.68;99210.69;5073744;28;20043;-77
2022/09/19 11:40:44;;;;;;;1.63;1.40;;;;;;;28.90;19.48;99225.97;5081283;28;20107;-77
2022/09/19 11:43:42;;;;;;;2.17;1.38;;;;;;;29.17;19.64;99274.06;5086345;28;20028;-78
2022/09/19 11:46:23;;;;;;;1.70;1.60;;;;;;;29.09;20.23;99270.97;5092288;28;20035;-78
2022/09/19 11:49:19;;;;;;;3.20;1.65;;;;;;;28.76;20.44;99231.41;5079582;28;20382;-79
2022/09/19 11:52:08;;;;;;;3.10;2.03;;;;;;;28.79;20.49;99269.66;5078795;28;20569;-78
2022/09/19 11:54:51;;;;;;;4.78;1.67;;;;;;;28.68;20.58;99268.28;5071892;28;20036;-79
2022/09/19 11:57:39;;;;;;;1.85;1.23;;;;;;;28.41;20.17;99260.94;5073064;28;20032;-76
2022/09/19 12:00:22;;;;;;;0.98;0.85;;;;;;;28.01;19.84;99215.53;5072924;28;20044;-78
2022/09/19 12:02:58;;;;;;;1.77;1.25;;;;;;;28.09;20.51;99240.06;5077133;28;20020;-78
2022/09/19 12:05:23;;;;;;;2.90;2.03;;;;;;;27.98;20.91;99246.78;5072946;28;20467;-77
2022/09/19 12:08:28;;;;;;;1.60;1.48;;;;;;;27.19;20.91;99151.84;5078057;28;20032;-77
2022/09/19 12:10:59;;;;;;;1.35;0.93;;;;;;;27.63;20.94;99236.59;5081615;28;20051;-78
2022/09/19 12:13:42;;;;;;;1.25;1.08;;;;;;;27.44;21.22;99233.84;5071600;28;20035;-78